Time;durP1;ratioP1;P1;durP2;ratioP2;P2;SDS_P1;SDS_P2;PMS_P1;PMS_P2;Temp;Humidity;BMP_temperature;BMP_pressure;BME280_temperature;BME280_humidity;BME280_pressure;Samples;Min_cycle;Max_cycle;Signal;HPM_P1;HPM_P2
2021/03/13 00:02:55;;;;;;;0.70;0.60;;;7.40;99.90;;;8.08;100.00;139319.88;5053392;28;20408;-74
2021/03/13 00:05:59;;;;;;;0.70;0.50;;;7.40;99.90;;;7.98;100.00;142310.09;5053010;28;20411;-74
2021/03/13 00:09:03;;;;;;;0.70;0.60;;;7.30;99.90;;;7.79;100.00;145278.09;5045861;28;20505;-73
2021/03/13 00:12:09;;;;;;;0.70;0.60;;;7.30;99.90;;;7.44;100.00;146535.25;5046549;28;20457;-74
2021/03/13 00:15:15;;;;;;;0.70;0.60;;;7.00;99.90;;;7.18;100.00;146470.63;5053332;28;20459;-71
2021/03/13 00:18:20;;;;;;;0.70;0.60;;;6.60;99.90;;;7.10;100.00;146450.38;5045352;28;20536;-72
2021/03/13 00:21:24;;;;;;;0.70;0.60;;;6.40;99.90;;;7.11;100.00;146452.94;5056575;28;20450;-72
2021/03/13 00:24:27;;;;;;;0.70;0.60;;;6.30;99.90;;;6.97;100.00;146418.75;5037049;28;20439;-73
2021/03/13 00:27:31;;;;;;;0.70;0.60;;;6.30;99.90;;;6.94;100.00;146411.16;5036278;28;20804;-73
2021/03/13 00:30:39;;;;;;;0.70;0.60;;;6.20;99.90;;;6.91;100.00;146403.53;5056212;28;20439;-74
2021/03/13 00:33:43;;;;;;;0.70;0.60;;;6.20;99.90;;;6.84;100.00;146387.06;5056923;28;20521;-73
2021/03/13 00:36:48;;;;;;;0.70;0.60;;;6.20;99.90;;;6.67;100.00;146345.34;5048669;28;20440;-73
2021/03/13 00:39:52;;;;;;;0.70;0.60;;;6.10;99.90;;;6.80;100.00;146375.69;5054446;28;20989;-73
2021/03/13 00:42:57;;;;;;;0.70;0.60;;;6.10;99.90;;;6.73;100.00;146357.88;5049414;28;20509;-72
2021/03/13 00:46:01;;;;;;;0.70;0.50;;;6.10;99.90;;;6.69;100.00;145678.59;5047756;28;20582;-73
2021/03/13 00:49:05;;;;;;;0.70;0.60;;;6.10;99.90;;;6.76;100.00;144692.56;5036718;28;20538;-72
2021/03/13 00:52:09;;;;;;;0.70;0.60;;;6.10;99.90;;;6.75;100.00;143351.13;5039127;28;21034;-72
2021/03/13 00:55:14;;;;;;;0.70;0.60;;;6.10;99.90;;;6.73;100.00;141341.78;5056223;28;20508;-72
2021/03/13 00:58:18;;;;;;;0.70;0.60;;;6.10;99.90;;;6.84;100.00;139362.66;5037690;28;20408;-72
2021/03/13 01:01:21;;;;;;;0.70;0.60;;;6.10;99.90;;;6.86;100.00;137696.44;5055236;28;20462;-72
2021/03/13 01:04:26;;;;;;;0.70;0.50;;;6.10;99.90;;;6.90;100.00;135704.19;5055438;28;20450;-72
2021/03/13 01:07:30;;;;;;;0.70;0.60;;;6.10;99.90;;;6.92;100.00;133707.00;5049292;28;20435;-72
2021/03/13 01:10:36;;;;;;;0.70;0.50;;;6.10;99.90;;;6.98;100.00;131385.38;5054887;28;20264;-71
2021/03/13 01:13:40;;;;;;;0.70;0.50;;;6.20;99.90;;;6.88;100.00;127365.16;5046939;28;20991;-72
2021/03/13 01:16:44;;;;;;;0.70;0.60;;;6.20;99.90;;;7.03;100.00;123404.28;5049810;28;20500;-72
2021/03/13 01:19:48;;;;;;;0.70;0.60;;;6.20;99.90;;;7.16;100.00;121768.91;5055899;28;20488;-72
2021/03/13 01:22:53;;;;;;;0.70;0.50;;;6.40;99.90;;;7.24;100.00;121453.19;5043371;28;20549;-71
2021/03/13 01:25:57;;;;;;;0.70;0.60;;;6.50;99.90;;;7.21;100.00;120781.81;5054645;28;21015;-72
2021/03/13 01:29:01;;;;;;;0.70;0.50;;;6.60;99.90;;;7.25;100.00;120456.66;5055458;28;20419;-72
2021/03/13 01:32:05;;;;;;;0.70;0.60;;;6.60;99.90;;;7.33;100.00;119807.31;5071362;28;20592;-72
2021/03/13 01:35:12;;;;;;;0.67;0.50;;;6.60;99.90;;;7.33;100.00;119474.88;5075900;28;20409;-72
2021/03/13 01:38:16;;;;;;;0.63;0.50;;;6.60;99.90;;;7.26;100.00;118464.41;5035544;28;20996;-72
2021/03/13 01:41:20;;;;;;;0.70;0.67;;;6.60;99.90;;;7.34;100.00;118479.81;5047229;28;20454;-72
2021/03/13 01:44:24;;;;;;;0.70;0.50;;;6.60;99.90;;;7.32;100.00;117479.84;5035640;28;20433;-71
2021/03/13 01:47:29;;;;;;;0.70;0.60;;;6.70;99.90;;;7.35;100.00;116820.50;5035504;28;20435;-72
2021/03/13 01:50:34;;;;;;;0.70;0.50;;;6.70;99.90;;;7.42;100.00;116170.28;5039315;28;20815;-72
2021/03/13 01:53:38;;;;;;;0.70;0.60;;;6.80;99.90;;;7.42;100.00;116170.28;5054262;28;20457;-71
2021/03/13 01:56:43;;;;;;;0.70;0.53;;;6.70;99.90;;;7.41;100.00;115504.03;5035338;28;20466;-71
2021/03/13 01:59:47;;;;;;;0.70;0.50;;;6.70;99.90;;;7.33;100.00;114824.94;5045896;28;20485;-71
2021/03/13 02:02:51;;;;;;;0.67;0.60;;;6.70;99.90;;;7.35;100.00;113833.03;5035737;28;20432;-72
2021/03/13 02:05:55;;;;;;;0.67;0.50;;;6.80;99.90;;;7.38;100.00;114169.94;5035162;28;20492;-72
2021/03/13 02:09:08;;;;;;;0.70;0.60;;;6.70;99.90;;;7.33;100.00;112832.56;5047838;28;20455;-72
2021/03/13 02:12:26;;;;;;;0.70;0.50;;;6.80;99.90;;;7.34;100.00;112835.50;5051773;28;20407;-71
2021/03/13 02:15:40;;;;;;;0.70;0.50;;;6.70;99.90;;;7.23;100.00;113478.53;5053202;28;20451;-70
2021/03/13 02:18:57;;;;;;;0.70;0.60;;;6.60;99.90;;;7.21;100.00;113142.78;5055201;28;20473;-70
2021/03/13 02:22:05;;;;;;;0.70;0.60;;;6.70;99.90;;;7.23;100.00;112814.97;5038567;28;20448;-70
2021/03/13 02:25:16;;;;;;;0.70;0.50;;;6.60;99.90;;;7.21;100.00;112478.34;5035413;28;20833;-70
2021/03/13 02:28:30;;;;;;;0.70;0.60;;;6.60;99.90;;;7.12;100.00;111798.50;5054778;28;20767;-72
2021/03/13 02:31:37;;;;;;;2.20;1.23;;;6.60;99.90;;;7.11;100.00;112791.50;5041488;28;20863;-72
2021/03/13 02:34:43;;;;;;;0.60;0.50;;;6.50;99.90;;;7.10;100.00;112126.22;5034019;28;20483;-73
2021/03/13 02:37:53;;;;;;;0.70;0.60;;;6.50;99.90;;;7.09;100.00;110465.66;5040140;28;20523;-73
2021/03/13 02:41:02;;;;;;;0.60;0.50;;;6.50;99.90;;;7.17;100.00;110150.47;5049833;28;20941;-72
2021/03/13 02:44:09;;;;;;;0.70;0.60;;;6.60;99.90;;;7.17;100.00;109156.22;5036285;28;20524;-72
2021/03/13 02:47:17;;;;;;;0.70;0.60;;;6.60;99.90;;;7.07;100.00;108474.72;5053268;28;20427;-72
2021/03/13 02:50:21;;;;;;;0.70;0.60;;;6.50;99.90;;;7.09;100.00;107484.81;5053235;28;20504;-72
2021/03/13 02:53:27;;;;;;;0.70;0.60;;;6.60;99.90;;;7.11;100.00;106164.09;5053923;28;20455;-73
2021/03/13 02:56:33;;;;;;;0.70;0.60;;;6.60;99.90;;;7.14;100.00;105506.63;5053768;28;20498;-72
2021/03/13 02:59:39;;;;;;;0.70;0.60;;;6.70;99.90;;;7.15;100.00;105177.47;5052814;28;20572;-72
2021/03/13 03:02:47;;;;;;;0.70;0.60;;;6.70;99.90;;;7.29;100.00;105202.13;5033936;28;20459;-72
2021/03/13 03:05:55;;;;;;;0.70;0.50;;;6.70;99.90;;;7.24;100.00;104531.91;5041762;28;20506;-72
2021/03/13 03:09:00;;;;;;;0.70;0.60;;;6.70;99.90;;;7.17;100.00;104519.19;5052884;28;20457;-73
2021/03/13 03:12:07;;;;;;;0.67;0.53;;;6.70;99.90;;;7.28;100.00;104538.25;5051495;28;20435;-73
2021/03/13 03:15:12;;;;;;;0.70;0.60;;;6.70;99.90;;;7.28;100.00;104207.28;5052365;28;21017;-73
2021/03/13 03:18:18;;;;;;;0.70;0.57;;;6.70;99.90;;;7.31;100.00;103882.66;5053526;28;20446;-71
2021/03/13 03:21:22;;;;;;;0.70;0.57;;;6.80;99.90;;;7.38;100.00;103895.31;5054162;28;20407;-71
2021/03/13 03:24:28;;;;;;;0.70;0.60;;;6.80;99.90;;;7.39;100.00;103565.22;5052649;28;20543;-72
2021/03/13 03:27:33;;;;;;;0.70;0.50;;;6.80;99.90;;;7.42;100.00;103240.56;5033882;28;20412;-71
2021/03/13 03:30:37;;;;;;;0.70;0.60;;;6.80;99.90;;;7.43;100.00;102579.63;5047927;28;20485;-72
2021/03/13 03:33:42;;;;;;;0.70;0.60;;;6.80;99.90;;;7.40;100.00;102905.16;5053655;28;20529;-72
2021/03/13 03:36:46;;;;;;;0.67;0.53;;;6.80;99.90;;;7.46;100.00;102584.97;5051933;28;20479;-72
2021/03/13 03:39:50;;;;;;;0.70;0.53;;;6.90;99.90;;;7.55;100.00;101277.50;5046408;28;20419;-72
2021/03/13 03:43:00;;;;;;;0.70;0.60;;;7.00;99.90;;;7.60;100.00;100293.00;5049107;28;20938;-74
2021/03/13 03:46:05;;;;;;;0.70;0.60;;;7.00;99.90;;;7.67;100.00;100636.88;5048100;28;21002;-72
2021/03/13 03:49:13;;;;;;;0.70;0.60;;;7.00;99.90;;;7.62;100.00;99305.19;5053485;28;20796;-72
2021/03/13 03:52:17;;;;;;;0.70;0.60;;;7.10;99.90;;;7.75;100.00;98996.88;5052848;28;20911;-74
2021/03/13 03:55:24;;;;;;;0.70;0.50;;;7.10;99.90;;;7.83;100.00;98347.47;5047779;28;20497;-72
2021/03/13 03:58:38;;;;;;;0.70;0.50;;;7.10;99.90;;;7.84;100.00;97688.72;5033626;28;20408;-72
2021/03/13 04:01:46;;;;;;;0.70;0.50;;;7.20;99.90;;;7.87;100.00;98023.63;5048796;28;20446;-72
2021/03/13 04:04:52;;;;;;;0.70;0.60;;;7.20;99.90;;;7.87;100.00;101332.03;5047161;28;20466;-71
2021/03/13 04:07:56;;;;;;;0.70;0.60;;;7.10;99.90;;;7.77;100.00;102638.44;5033771;28;20403;-72
2021/03/13 04:11:01;;;;;;;0.70;0.60;;;7.20;99.90;;;7.74;100.00;104290.59;5033497;28;20504;-72
2021/03/13 04:14:07;;;;;;;0.70;0.50;;;7.20;99.90;;;7.77;100.00;106945.00;5034043;28;20893;-72
2021/03/13 04:17:11;;;;;;;0.70;0.60;;;7.10;99.90;;;7.68;100.00;108918.41;5052057;28;20455;-72
2021/03/13 04:20:16;;;;;;;0.70;0.60;;;7.10;99.90;;;7.77;100.00;109266.13;5053571;28;20410;-71
2021/03/13 04:23:23;;;;;;;0.70;0.50;;;7.20;99.90;;;7.70;100.00;110581.69;5053337;28;20496;-73
2021/03/13 04:26:30;;;;;;;0.70;0.50;;;7.10;99.90;;;7.59;100.00;113879.47;5048967;28;20542;-73
2021/03/13 04:29:33;;;;;;;0.70;0.50;;;7.10;99.90;;;7.61;100.00;117537.88;5052640;28;20415;-70
2021/03/13 04:32:38;;;;;;;0.70;0.50;;;7.00;99.90;;;7.60;100.00;118200.72;5033225;28;20408;-71
2021/03/13 04:35:45;;;;;;;0.70;0.60;;;7.00;99.90;;;7.60;100.00;118864.66;5045230;28;20462;-72
2021/03/13 04:38:49;;;;;;;0.70;0.50;;;7.00;99.90;;;7.65;100.00;118543.44;5053229;28;20801;-72
2021/03/13 04:41:54;;;;;;;0.70;0.50;;;7.00;99.90;;;7.64;100.00;118873.91;5053208;28;20416;-71
2021/03/13 04:44:58;;;;;;;0.60;0.50;;;7.00;99.90;;;7.69;100.00;118218.09;5033709;28;20479;-72
2021/03/13 04:48:03;;;;;;;0.70;0.53;;;7.10;99.90;;;7.71;100.00;117558.25;5052880;28;20490;-72
2021/03/13 04:51:11;;;;;;;0.70;0.60;;;7.10;99.90;;;7.71;100.00;117558.25;5052495;28;20978;-72
2021/03/13 04:54:15;;;;;;;0.70;0.60;;;7.10;99.90;;;7.72;100.00;116895.44;5050696;28;20824;-72
2021/03/13 04:57:18;;;;;;;0.70;0.50;;;7.10;99.90;;;7.81;100.00;116580.22;5052643;28;20499;-72
2021/03/13 05:00:23;;;;;;;0.60;0.50;;;7.10;99.90;;;7.85;100.00;114926.50;5055501;28;20476;-71
2021/03/13 05:03:27;;;;;;;0.70;0.60;;;7.30;99.90;;;7.93;100.00;113945.59;5054585;28;20512;-73
2021/03/13 05:06:32;;;;;;;0.70;0.60;;;7.40;99.90;;;8.03;100.00;112966.66;5036483;28;20443;-73
2021/03/13 05:09:36;;;;;;;0.70;0.60;;;7.40;99.90;;;8.04;100.00;112305.28;5049698;28;20422;-74
2021/03/13 05:12:40;;;;;;;0.70;0.50;;;7.50;99.90;;;8.05;100.00;111974.13;5051561;28;20569;-73
2021/03/13 05:15:43;;;;;;;0.70;0.50;;;7.50;99.90;;;8.06;100.00;111643.97;5043169;28;20451;-70
2021/03/13 05:18:47;;;;;;;0.60;0.50;;;7.50;99.90;;;8.07;100.00;111646.88;5054260;28;20496;-70
2021/03/13 05:21:53;;;;;;;0.70;0.60;;;7.50;99.90;;;8.19;100.00;109345.78;5055008;28;20466;-72
2021/03/13 05:24:57;;;;;;;0.70;0.60;;;7.70;99.90;;;8.27;100.00;107700.50;5055517;28;20490;-72
2021/03/13 05:28:01;;;;;;;0.70;0.60;;;7.80;99.90;;;8.25;100.00;108692.34;5066419;28;20495;-72
2021/03/13 05:31:04;;;;;;;0.70;0.60;;;7.70;99.90;;;8.35;100.00;106720.00;5049270;28;21066;-72
2021/03/13 05:34:08;;;;;;;0.70;0.60;;;7.80;99.90;;;8.33;100.00;106715.38;5042949;28;20479;-72
2021/03/13 05:37:13;;;;;;;0.70;0.60;;;7.80;99.90;;;8.48;100.00;105416.06;5050314;28;20441;-72
2021/03/13 05:40:17;;;;;;;0.60;0.50;;;8.00;99.90;;;8.49;100.00;105416.97;5048880;28;20451;-73
2021/03/13 05:43:22;;;;;;;0.60;0.57;;;8.00;99.90;;;8.43;100.00;106402.09;5053313;28;20431;-72
2021/03/13 05:46:34;;;;;;;0.60;0.50;;;7.90;99.90;;;8.35;100.00;109374.22;5053943;28;20801;-72
2021/03/13 05:49:41;;;;;;;0.70;0.50;;;7.80;99.90;;;8.41;100.00;109717.72;5053432;28;20577;-71
2021/03/13 05:52:52;;;;;;;0.63;0.50;;;7.80;99.90;;;8.30;100.00;110029.75;5035655;28;20393;-72
2021/03/13 05:55:56;;;;;;;0.70;0.60;;;7.80;99.90;;;8.34;100.00;111365.94;5035603;28;20443;-73
2021/03/13 05:59:01;;;;;;;0.60;0.50;;;7.80;99.90;;;8.41;100.00;110049.81;5039197;28;20443;-72
2021/03/13 06:02:06;;;;;;;0.70;0.50;;;7.90;99.90;;;8.50;100.00;109069.66;5053411;28;20815;-71
2021/03/13 06:05:11;;;;;;;0.70;0.60;;;8.00;99.90;;;8.53;100.00;107748.19;5054719;28;20428;-73
2021/03/13 06:08:17;;;;;;;0.70;0.53;;;8.10;99.90;;;8.61;100.00;104775.41;5054775;28;20432;-74
2021/03/13 06:11:22;;;;;;;0.70;0.60;;;8.20;99.90;;;8.70;100.00;103797.50;5040520;28;20450;-73
2021/03/13 06:14:26;;;;;;;0.70;0.60;;;8.20;99.90;;;8.69;100.00;104790.88;5035805;28;20534;-73
2021/03/13 06:17:50;;;;;;;0.70;0.50;;;8.20;99.90;;;8.74;100.00;103139.59;5033898;28;20586;-74
2021/03/13 06:20:54;;;;;;;0.60;0.50;;;8.30;99.90;;;8.82;100.00;103818.22;5037818;28;20420;-71
2021/03/13 06:24:02;;;;;;;0.70;0.60;;;8.30;99.90;;;8.83;100.00;103487.38;5051886;28;20491;-71
2021/03/13 06:27:05;;;;;;;0.70;0.50;;;8.40;99.90;;;8.88;100.00;103496.38;5044581;28;20856;-75
2021/03/13 06:30:15;;;;;;;0.70;0.50;;;8.30;99.90;;;8.88;100.00;102832.97;5046144;28;21126;-73
2021/03/13 06:33:21;;;;;;;0.70;0.53;;;8.30;99.90;;;8.89;100.00;103167.34;5040982;28;20467;-72
2021/03/13 06:36:26;;;;;;;0.70;0.60;;;8.40;99.90;;;8.78;100.00;103147.63;5053964;28;20434;-73
2021/03/13 06:39:39;;;;;;;0.70;0.60;;;8.30;99.90;;;8.95;100.00;103841.66;5045294;28;20431;-71
2021/03/13 06:42:42;;;;;;;0.70;0.50;;;8.40;99.90;;;8.97;100.00;105171.91;5050229;28;20986;-70
2021/03/13 06:45:59;;;;;;;0.70;0.50;;;8.50;99.90;;;9.11;100.00;101547.00;5044664;28;20464;-72
2021/03/13 06:49:02;;;;;;;0.70;0.60;;;8.50;99.90;;;9.07;100.00;101208.31;5043520;28;20894;-73
2021/03/13 06:52:06;;;;;;;0.70;0.57;;;8.50;99.90;;;9.16;100.00;101224.13;5043142;28;20409;-73
2021/03/13 06:55:21;;;;;;;0.70;0.60;;;8.60;99.90;;;9.28;100.00;103898.41;5047484;28;20501;-73
2021/03/13 06:58:30;;;;;;;0.70;0.60;;;8.60;99.90;;;9.18;100.00;104545.25;5043759;28;20458;-72
2021/03/13 07:01:34;;;;;;;0.70;0.50;;;8.60;99.90;;;9.10;100.00;108849.84;5043969;28;20447;-73
2021/03/13 07:04:42;;;;;;;0.70;0.50;;;8.50;99.90;;;9.17;100.00;109195.50;5043860;28;20460;-71
2021/03/13 07:07:45;;;;;;;0.70;0.60;;;8.60;99.90;;;9.22;100.00;114193.63;5044029;28;20404;-74
2021/03/13 07:10:52;;;;;;;0.70;0.57;;;8.50;99.90;;;9.04;100.00;115158.69;5045266;28;20486;-72
2021/03/13 07:13:56;;;;;;;0.70;0.50;;;8.50;99.90;;;9.04;100.00;119488.56;5046232;28;20448;-72
2021/03/13 07:17:00;;;;;;;0.70;0.60;;;8.40;99.90;;;9.10;100.00;116834.94;5043532;28;20448;-72
2021/03/13 07:20:06;;;;;;;0.70;0.50;;;8.50;99.90;;;9.14;100.00;118510.22;5044228;28;20420;-73
2021/03/13 07:23:18;;;;;;;0.70;0.60;;;8.50;99.90;;;9.36;100.00;116553.25;5044920;28;20420;-74
2021/03/13 07:26:34;;;;;;;0.70;0.60;;;8.60;99.90;;;9.44;100.00;113571.06;5043316;28;20492;-74
2021/03/13 07:29:40;;;;;;;0.70;0.50;;;8.80;99.90;;;9.47;100.00;114909.31;5055428;28;20467;-72
2021/03/13 07:32:49;;;;;;;0.70;0.50;;;8.80;99.90;;;9.51;100.00;115583.66;5057849;28;20855;-70
2021/03/13 07:35:54;;;;;;;0.70;0.50;;;8.70;99.90;;;9.25;100.00;116864.25;5040486;28;20543;-71
2021/03/13 07:39:05;;;;;;;0.70;0.60;;;8.70;99.90;;;9.28;100.00;120872.41;5049965;28;20435;-72
2021/03/13 07:42:14;;;;;;;0.70;0.50;;;8.60;99.90;;;9.06;100.00;121827.03;5042407;28;20969;-71
2021/03/13 07:45:19;;;;;;;0.70;0.60;;;8.50;99.90;;;9.08;100.00;123499.56;5041111;28;20948;-73
2021/03/13 07:48:23;;;;;;;0.70;0.60;;;8.50;99.90;;;8.88;100.00;130472.47;5043236;28;20475;-72
2021/03/13 07:51:27;;;;;;;0.70;0.50;;;8.30;99.90;;;8.80;100.00;133462.84;5039159;28;20451;-73
2021/03/13 07:54:35;;;;;;;0.70;0.60;;;8.10;99.90;;;5.96;100.00;108600.19;5039610;28;20466;-74
2021/03/13 07:57:43;;;;;;;0.70;0.60;;;4.70;99.90;;;5.43;100.00;124729.09;5045354;28;20494;-72
2021/03/13 08:00:48;;;;;;;0.70;0.60;;;4.20;99.90;;;5.56;100.00;127745.25;5043942;28;20487;-72
2021/03/13 08:03:51;;;;;;;0.70;0.60;;;4.30;99.90;;;5.67;100.00;126772.78;5038878;28;20220;-71
2021/03/13 08:06:58;;;;;;;0.70;0.60;;;4.50;99.90;;;5.88;100.00;124823.22;5048766;28;20539;-70
2021/03/13 08:10:03;;;;;;;0.70;0.60;;;4.60;99.90;;;6.13;100.00;122552.03;5035963;28;20619;-71
2021/03/13 08:13:09;;;;;;;0.70;0.60;;;4.80;99.90;;;6.21;100.00;119249.34;5047495;28;20238;-70
2021/03/13 08:16:18;;;;;;;0.70;0.60;;;4.90;99.90;;;6.32;100.00;116284.47;5050709;28;20216;-72
2021/03/13 08:19:34;;;;;;;0.70;0.60;;;5.00;99.90;;;6.57;100.00;114344.13;5051178;28;20259;-71
2021/03/13 08:22:38;;;;;;;0.70;0.60;;;5.10;99.90;;;6.60;100.00;112362.28;5038883;28;20236;-70
2021/03/13 08:25:52;;;;;;;0.70;0.60;;;5.10;99.90;;;6.74;100.00;111064.06;5038215;28;20664;-71
2021/03/13 08:28:57;;;;;;;0.70;0.50;;;5.20;99.90;;;6.93;100.00;109774.25;5047772;28;20250;-71
2021/03/13 08:32:01;;;;;;;0.70;0.50;;;5.40;99.90;;;7.08;100.00;109139.19;5050134;28;20458;-72
2021/03/13 08:35:07;;;;;;;0.70;0.60;;;5.60;99.90;;;7.42;100.00;107544.56;5046256;28;20458;-72
2021/03/13 08:38:12;;;;;;;0.70;0.60;;;5.70;99.90;;;7.35;100.00;106207.41;5054670;28;20259;-71
2021/03/13 08:41:47;;;;;;;0.70;0.60;;;5.90;99.90;;;7.59;100.00;104593.69;5055600;28;20199;-71
2021/03/13 08:45:14;;;;;;;0.70;0.60;;;6.10;99.90;;;7.62;100.00;102613.53;5036483;28;20419;-70
2021/03/13 08:48:37;;;;;;;0.70;0.50;;;6.30;99.90;;;7.85;100.00;100666.63;5051640;28;20912;-72
2021/03/13 08:51:41;;;;;;;0.70;0.60;;;6.60;99.90;;;7.98;100.00;99365.59;5047832;28;20439;-73
2021/03/13 08:54:47;;;;;;;0.70;0.60;;;6.90;99.90;;;7.94;100.00;97704.84;5042658;28;20857;-72
2021/03/13 08:57:51;;;;;;;0.70;0.53;;;7.00;99.90;;;8.14;100.00;95092.59;5056522;28;20469;-73
2021/03/13 09:00:56;;;;;;;0.70;0.60;;;7.10;99.90;;;8.24;100.00;94448.78;5060190;28;20454;-73
2021/03/13 09:04:00;;;;;;;0.70;0.50;;;7.30;99.90;;;8.33;100.00;89506.63;5056429;28;20974;-72
2021/03/13 09:07:07;;;;;;;0.70;0.60;;;7.60;99.90;;;8.42;100.00;86220.59;5044933;28;20451;-72
2021/03/13 09:10:11;;;;;;;0.70;0.60;;;7.70;99.90;;;8.56;100.00;81625.00;5048130;28;20439;-73
2021/03/13 09:13:19;;;;;;;0.70;0.50;;;7.80;99.90;;;8.52;100.00;78326.91;5050119;28;20467;-73
2021/03/13 09:16:24;;;;;;;0.70;0.50;;;7.90;99.90;;;8.60;100.00;75705.31;5048017;28;20802;-73
2021/03/13 09:19:28;;;;;;;0.70;0.60;;;7.90;99.90;;;8.77;100.00;69809.06;5042601;28;20447;-72
2021/03/13 09:22:32;;;;;;;0.70;0.53;;;8.00;99.90;;;8.92;100.00;65230.91;5036342;28;20462;-72
2021/03/13 09:25:36;;;;;;;0.70;0.60;;;8.00;99.90;;;8.79;100.00;63904.06;5051442;28;20441;-72
2021/03/13 09:28:39;;;;;;;0.70;0.50;;;8.00;99.90;;;8.52;100.00;65841.31;5049669;28;20439;-73
2021/03/13 09:31:44;;;;;;;1.37;1.27;;;7.90;99.90;;;8.57;100.00;63224.84;5047612;28;20835;-72
2021/03/13 09:34:50;;;;;;;0.70;0.60;;;7.90;99.90;;;8.65;100.00;66513.13;5055847;28;20477;-73
2021/03/13 09:37:54;;;;;;;0.70;0.60;;;7.80;99.90;;;8.42;100.00;60915.34;5054015;28;20463;-73
2021/03/13 09:40:59;;;;;;;0.70;0.50;;;7.80;99.90;;;8.61;100.00;47696.31;5049532;28;20438;-72
2021/03/13 09:44:03;;;;;;;0.70;0.50;;;7.90;99.90;;;8.68;100.00;63236.59;5040905;28;20427;-73
2021/03/13 09:47:18;;;;;;;0.70;0.50;;;7.90;99.90;;;8.66;100.00;45214.06;5052693;28;20440;-73
2021/03/13 09:50:27;;;;;;;0.70;0.50;;;8.00;99.90;;;8.48;100.00;34201.59;5055606;28;20411;-71
2021/03/13 09:53:31;;;;;;;0.77;0.70;;;8.00;99.90;;;8.95;100.00;21893.72;5039612;28;20468;-72
2021/03/13 09:56:35;;;;;;;0.70;0.50;;;8.10;99.90;;;9.07;100.00;-9700.25;5053229;28;20494;-71
2021/03/13 09:59:40;;;;;;;0.70;0.57;;;8.20;99.90;;;9.21;100.00;-18756.06;5053750;28;20457;-74
2021/03/13 10:02:46;;;;;;;0.70;0.60;;;8.20;99.90;;;9.24;100.00;-20806.66;5035360;28;20929;-74
2021/03/13 10:05:51;;;;;;;0.70;0.60;;;8.20;99.90;;;9.05;100.00;-19697.25;5035460;28;20428;-74
2021/03/13 10:08:58;;;;;;;0.70;0.60;;;8.10;99.90;;;8.57;100.00;-18016.56;5041874;28;20453;-74
2021/03/13 10:12:06;;;;;;;1.17;1.07;;;8.00;99.90;;;8.79;100.00;-17151.59;5035563;28;20457;-72
2021/03/13 10:15:13;;;;;;;0.70;0.60;;;8.10;99.90;;;9.41;100.00;-19201.09;5037444;28;20530;-71
2021/03/13 10:18:19;;;;;;;0.70;0.60;;;8.40;99.90;;;9.53;100.00;-20622.09;5054036;28;20486;-71
2021/03/13 10:21:23;;;;;;;0.70;0.50;;;8.70;99.90;;;9.84;100.00;-20949.97;5046493;28;20450;-73
2021/03/13 10:24:27;;;;;;;0.70;0.60;;;8.80;99.90;;;10.18;100.00;-20958.97;5044067;28;20796;-71
2021/03/13 10:27:31;;;;;;;0.70;0.60;;;8.90;99.90;;;11.11;100.00;-20984.41;5048442;28;20964;-73
2021/03/13 10:30:36;;;;;;;0.70;0.50;;;9.40;99.90;;;11.01;100.00;-20981.66;5045488;28;20546;-72
2021/03/13 10:33:44;;;;;;;0.70;0.60;;;9.70;99.90;;;10.54;100.00;-20968.94;5046613;28;20468;-72
2021/03/13 10:36:48;;;;;;;0.70;0.60;;;9.50;99.90;;;10.55;100.00;-20969.06;5042686;28;20476;-71
2021/03/13 10:39:51;;;;;;;0.70;0.60;;;9.40;99.90;;;11.02;100.00;-20981.78;5034967;28;20419;-73
2021/03/13 10:43:23;;;;;;;0.70;0.60;;;9.50;99.90;;;10.31;100.00;-20962.72;5048470;28;20562;-72
2021/03/13 10:46:36;;;;;;;0.70;0.60;;;9.40;99.90;;;10.55;100.00;-20969.22;5044988;28;20493;-72
2021/03/13 10:49:40;;;;;;;0.70;0.60;;;9.40;99.90;;;10.67;100.00;-20972.25;5046591;28;20516;-71
2021/03/13 10:52:44;;;;;;;0.70;0.60;;;9.50;99.90;;;10.68;100.00;-20972.53;5047508;28;20439;-73
2021/03/13 10:55:53;;;;;;;0.70;0.60;;;9.60;99.90;;;10.78;100.00;-20975.28;5041224;28;20512;-72
2021/03/13 10:58:57;;;;;;;0.80;0.70;;;9.70;99.90;;;11.95;100.00;-21007.09;5037944;28;20831;-73
2021/03/13 11:02:01;;;;;;;0.70;0.60;;;10.60;99.90;;;12.60;100.00;-21024.47;5051504;28;20478;-72
2021/03/13 11:05:07;;;;;;;0.70;0.60;;;11.10;99.90;;;12.87;100.00;-21031.78;5034711;28;20414;-72
2021/03/13 11:08:12;;;;;;;0.70;0.60;;;11.20;99.90;;;12.06;100.00;-21010.13;5044329;28;20460;-72
2021/03/13 11:11:15;;;;;;;0.70;0.60;;;10.60;99.90;;;11.05;100.00;-20982.75;5052408;28;20437;-71
2021/03/13 11:14:19;;;;;;;0.70;0.60;;;10.00;99.90;;;10.61;100.00;-20970.88;5034394;28;20517;-71
2021/03/13 11:17:23;;;;;;;0.70;0.60;;;9.40;99.90;;;10.35;100.00;-20963.81;5038620;28;20481;-69
2021/03/13 11:20:27;;;;;;;0.70;0.60;;;9.50;99.90;;;9.92;100.00;-19173.47;5045206;28;20439;-73
2021/03/13 11:23:32;;;;;;;0.70;0.60;;;9.10;99.90;;;10.57;100.00;-2987.22;5045205;28;20476;-72
2021/03/13 11:26:35;;;;;;;0.70;0.70;;;9.40;99.90;;;11.93;100.00;-19274.81;5059827;28;20438;-72
2021/03/13 11:29:39;;;;;;;0.70;0.60;;;10.10;99.90;;;12.28;100.00;-21015.91;5041021;28;20427;-72
2021/03/13 11:32:42;;;;;;;0.70;0.60;;;10.50;99.90;;;11.19;100.00;-20986.50;5044828;28;20430;-73
2021/03/13 11:35:47;;;;;;;0.70;0.63;;;10.20;99.90;;;11.11;100.00;-20984.41;5039094;28;20441;-72
2021/03/13 11:38:51;;;;;;;0.70;0.60;;;9.80;99.90;;;11.38;100.00;-20991.59;5050911;28;20509;-73
2021/03/13 11:41:55;;;;;;;0.70;0.60;;;10.10;99.90;;;11.39;100.00;-20991.88;5045951;28;20415;-71
2021/03/13 11:44:59;;;;;;;0.70;0.60;;;9.90;99.90;;;11.50;100.00;-20994.91;5048806;28;20420;-72
2021/03/13 11:48:03;;;;;;;0.70;0.60;;;10.20;99.90;;;11.66;100.00;-20999.22;5034892;28;20797;-74
2021/03/13 11:51:08;;;;;;;0.70;0.60;;;10.50;99.90;;;11.45;100.00;-20993.41;5036983;28;20439;-73
2021/03/13 11:54:12;;;;;;;0.70;0.60;;;10.30;99.90;;;11.36;100.00;-20991.06;5045593;28;20513;-73
2021/03/13 11:57:16;;;;;;;0.70;0.70;;;10.40;99.90;;;11.33;100.00;-20990.34;5042876;28;20767;-71
2021/03/13 12:00:21;;;;;;;0.70;0.63;;;10.10;99.50;;;11.25;100.00;-20988.16;5049333;28;20492;-72
2021/03/13 12:03:26;;;;;;;0.70;0.60;;;10.30;99.90;;;10.97;100.00;-20980.56;5041133;28;20967;-72
2021/03/13 12:06:31;;;;;;;0.70;0.70;;;10.10;99.90;;;10.45;100.00;-12530.69;5036814;28;20416;-74
2021/03/13 12:09:36;;;;;;;0.70;0.70;;;9.60;99.90;;;9.21;100.00;109533.66;5048217;28;20538;-72
2021/03/13 12:12:40;;;;;;;0.70;0.60;;;8.30;99.90;;;9.04;100.00;146932.00;5053037;28;20492;-72
2021/03/13 12:15:43;;;;;;;0.70;0.60;;;8.00;99.90;;;9.51;100.00;147049.97;5049168;28;20447;-73
2021/03/13 12:18:47;;;;;;;0.70;0.60;;;8.40;99.90;;;9.75;100.00;147108.34;5038531;28;20492;-73
2021/03/13 12:21:52;;;;;;;0.70;0.60;;;9.10;99.90;;;10.21;100.00;147222.59;5037025;28;20631;-74
2021/03/13 12:24:55;;;;;;;0.70;0.60;;;9.50;99.90;;;10.36;100.00;147260.72;5039313;28;20452;-72
2021/03/13 12:27:59;;;;;;;0.70;0.60;;;9.70;99.90;;;10.92;100.00;147400.41;5050128;28;20432;-72
2021/03/13 12:31:02;;;;;;;0.70;0.60;;;9.80;99.90;;;10.80;100.00;147369.94;5045524;28;20444;-73
2021/03/13 12:34:07;;;;;;;0.70;0.50;;;9.80;99.90;;;10.79;100.00;147364.78;5049721;28;20612;-73
2021/03/13 12:37:12;;;;;;;0.70;0.60;;;9.40;99.90;;;9.85;100.00;146459.63;5050893;28;20427;-73
2021/03/13 12:40:16;;;;;;;0.70;0.60;;;8.80;99.90;;;9.54;100.00;147057.59;5033398;28;20453;-72
2021/03/13 12:43:20;;;;;;;0.70;0.60;;;8.50;99.90;;;9.04;100.00;146932.00;5050208;28;20454;-72
2021/03/13 12:46:24;;;;;;;0.70;0.60;;;8.30;99.90;;;8.87;100.00;146891.44;5050944;28;20474;-73
2021/03/13 12:49:28;;;;;;;0.70;0.60;;;8.20;99.90;;;8.60;100.00;146824.22;5052776;28;20452;-72
2021/03/13 12:52:33;;;;;;;0.70;0.60;;;8.10;99.90;;;8.55;100.00;146811.56;5048488;28;21093;-73
2021/03/13 12:55:36;;;;;;;0.70;0.60;;;8.00;99.90;;;8.55;100.00;146811.56;5044052;28;20420;-72
2021/03/13 12:58:41;;;;;;;0.70;0.60;;;7.90;99.90;;;7.56;100.00;146565.66;5044320;28;20451;-73
2021/03/13 13:01:44;;;;;;;0.70;0.60;;;7.10;99.90;;;6.65;100.00;146340.25;5050241;28;20497;-72